• Join FlightAware (Why Join?)
  • Login
  • US Flag 
03:13PM EDT


 

Airport Tracker/Info


-or-


 

Live Flight TrackerFlight Track Log ✈ EJM498 ✈ 07-May-2013 ✈ KBWI - KTEB

Flight Track Log - Related Links

Times and Time Zones

All times are in EDT time to prevent confusion due to time zone crossing. See the EJM498 flight status page for this flight to view local times or setup timezone preferences in your user account.

Time Position Orientation Groundspeed Altitude Reporting Facility
EDT Latitude Longitude Course Direction KTS MPH feet Rate Location/Type
09:28PM 39.1500 -76.6500 113° Southeast 168 193 2,200  Level Potomac TRACON
09:29PM 39.1333 -76.6000 113° Southeast 204 235 6,000 3,060 Climbing Potomac TRACON
09:31PM 39.1397 -76.4186 87° East 218 251 12,400 2,460 Climbing Washington Center
09:32PM 39.1592 -76.3278 75° East 230 265 14,300 1,620 Climbing Washington Center
09:33PM 39.2261 -76.2561 40° Northeast 276 318 15,700 1,200 Climbing Washington Center
09:34PM 39.2997 -76.1761 40° Northeast 301 346 16,700 660 Climbing Washington Center
09:35PM 39.3792 -76.0908 40° Northeast 334 384 17,000 120 Climbing Washington Center
09:36PM 39.4525 -76.0056 42° Northeast 345 397 17,000  Level Washington Center
09:37PM 39.5236 -75.9197 43° Northeast 351 404 17,000 -1,020 Level Washington Center
09:39PM 39.6500 -75.7667 43° Northeast 351 404 14,500 -1,500 Descending Philadelphia TRACON
09:40PM 39.7167 -75.7000 38° Northeast 343 395 13,300 -780 Descending Philadelphia TRACON
09:41PM 39.7833 -75.6167 44° Northeast 336 387 13,100 -180 Descending Philadelphia TRACON
09:42PM 39.8833 -75.5333 33° Northeast 364 419 13,000 -60 Descending Philadelphia TRACON
09:43PM 39.9500 -75.4500 44° Northeast 359 413 13,000  Level Philadelphia TRACON
09:43PM 40.0167 -75.3833 37° Northeast 360 414 13,000  Level Philadelphia TRACON
09:44PM 40.1000 -75.3167 31° Northeast 362 417 13,000 -300 Level Philadelphia TRACON
09:45PM 40.1833 -75.2333 37° Northeast 340 391 12,500 -1,260 Descending Philadelphia TRACON
09:48PM 40.3167 -75.1167 34° Northeast 293 337 9,100 -1,620 Descending New York TRACON
09:49PM 40.3833 -75.0333 44° Northeast 279 321 7,500 -1,020 Descending New York TRACON
09:50PM 40.4333 -74.9667 45° Northeast 274 315 7,100 -600 Descending New York TRACON
09:51PM 40.4833 -74.8833 52° Northeast 275 316 6,400 -960 Descending New York TRACON
09:51PM 40.5333 -74.8167 45° Northeast 267 307 5,300 -1,320 Descending New York TRACON
09:52PM 40.5667 -74.7500 57° Northeast 256 295 4,000 -1,140 Descending New York TRACON
09:53PM 40.5833 -74.6667 75° East 245 282 3,100 -540 Descending New York TRACON
09:54PM 40.6167 -74.5833 62° Northeast 249 287 3,000 -60 Descending New York TRACON
09:55PM 40.6500 -74.4833 66° East 252 290 3,000 -120 Level New York TRACON
09:56PM 40.6667 -74.4167 72° East 196 226 2,800 -540 Descending New York TRACON
09:57PM 40.6833 -74.3667 66° East 165 190 2,000 -420 Descending New York TRACON
09:58PM 40.7000 -74.3000 72° East 164 189 2,000  Level New York TRACON
09:59PM 40.7167 -74.2500 66° East 173 199 2,000 -300 Level New York TRACON
10:00PM 40.7500 -74.2000 49° Northeast 172 198 1,500 -300 Descending New York TRACON
10:01PM 40.7833 -74.1667 37° Northeast 170 196 1,500 -300 Level New York TRACON
10:02PM 40.8167 -74.1167 49° Northeast 133 153 1,000 -600 Descending New York TRACON
10:03PM 40.8333 -74.0833 57° Northeast 120 138 400 -600 Descending New York TRACON
10:05PM 40.8500 -74.0500 57° Northeast  Level FlightAware Approximate
10:12PM 40.8501 -74.0608 57° Northeast  Level Estimated
10:13PM 40.8501 -74.0608 57° Northeast  Level Estimated